Time;durP1;ratioP1;P1;durP2;ratioP2;P2;SDS_P1;SDS_P2;PMS_P1;PMS_P2;Temp;Humidity;BMP_temperature;BMP_pressure;BME280_temperature;BME280_humidity;BME280_pressure;Samples;Min_cycle;Max_cycle;Signal;HPM_P1;HPM_P2
2024/02/27 00:02:07;;;;;;;30.95;22.67;;;4.20;99.90;;;;;;4984575;28;20037;-82
2024/02/27 00:04:34;;;;;;;32.38;22.92;;;4.10;99.90;;;;;;5000562;28;20025;-80
2024/02/27 00:07:00;;;;;;;31.52;21.75;;;4.00;99.90;;;;;;5002514;28;20535;-80
2024/02/27 00:09:27;;;;;;;31.88;21.63;;;4.00;99.90;;;;;;4996864;28;20033;-81
2024/02/27 00:11:54;;;;;;;38.15;25.23;;;3.90;99.90;;;;;;5001979;28;20045;-84
2024/02/27 00:14:21;;;;;;;34.15;22.92;;;3.90;99.90;;;;;;5001091;28;20033;-80
2024/02/27 00:16:47;;;;;;;31.75;21.33;;;3.90;99.90;;;;;;5004840;28;20034;-78
2024/02/27 00:19:13;;;;;;;34.08;23.33;;;3.90;99.90;;;;;;4984622;28;20048;-80
2024/02/27 00:21:40;;;;;;;34.13;23.85;;;3.90;99.90;;;;;;5000904;28;20041;-81
2024/02/27 00:24:06;;;;;;;37.33;24.77;;;4.00;99.90;;;;;;5013510;28;20064;-81
2024/02/27 00:26:32;;;;;;;32.53;22.73;;;4.00;99.90;;;;;;5001066;28;21009;-78
2024/02/27 00:28:59;;;;;;;35.65;24.88;;;4.00;99.90;;;;;;4994002;28;20581;-79
2024/02/27 00:31:25;;;;;;;35.67;23.52;;;4.00;99.90;;;;;;4997740;28;20042;-80
2024/02/27 00:33:51;;;;;;;35.08;24.80;;;4.10;99.90;;;;;;4980168;28;20037;-80
2024/02/27 00:36:18;;;;;;;32.65;22.23;;;4.10;99.90;;;;;;4996515;28;20033;-78
2024/02/27 00:38:44;;;;;;;36.88;24.90;;;4.10;99.90;;;;;;4964616;28;20480;-79
2024/02/27 00:41:10;;;;;;;32.60;22.63;;;4.10;99.90;;;;;;4978548;28;20056;-81
2024/02/27 00:43:37;;;;;;;35.58;23.50;;;4.00;99.90;;;;;;4999111;28;20037;-79
2024/02/27 00:46:03;;;;;;;34.03;23.52;;;4.00;99.90;;;;;;4994463;28;20033;-79
2024/02/27 00:48:29;;;;;;;35.85;22.60;;;4.00;99.90;;;;;;4979292;28;20496;-80
2024/02/27 00:50:56;;;;;;;34.78;23.08;;;3.90;99.90;;;;;;4997599;28;20413;-81
2024/02/27 00:53:22;;;;;;;35.88;24.77;;;3.90;99.90;;;;;;4971321;28;20044;-79
2024/02/27 00:55:49;;;;;;;30.70;20.63;;;3.90;99.90;;;;;;4967275;28;20115;-79
2024/02/27 00:58:16;;;;;;;34.20;22.42;;;3.90;99.90;;;;;;4980876;28;20148;-77
2024/02/27 01:00:43;;;;;;;37.45;23.95;;;3.90;99.90;;;;;;4995059;28;20033;-78
2024/02/27 01:03:09;;;;;;;33.38;21.90;;;3.90;99.90;;;;;;4995462;28;20574;-78
2024/02/27 01:05:35;;;;;;;38.25;24.77;;;4.00;99.90;;;;;;4978656;28;20049;-78
2024/02/27 01:08:02;;;;;;;37.78;23.52;;;4.00;99.90;;;;;;4980681;28;20045;-80
2024/02/27 01:10:28;;;;;;;34.45;22.25;;;4.00;99.90;;;;;;5001285;28;20040;-79
2024/02/27 01:12:55;;;;;;;37.05;23.55;;;4.00;99.90;;;;;;4997332;28;20509;-79
2024/02/27 01:15:21;;;;;;;33.40;23.33;;;4.10;99.90;;;;;;4978299;28;20485;-78
2024/02/27 01:17:48;;;;;;;33.95;22.63;;;4.10;99.90;;;;;;4977803;28;20037;-79
2024/02/27 01:20:14;;;;;;;36.53;23.30;;;4.10;99.90;;;;;;4974681;28;21459;-79
2024/02/27 01:22:40;;;;;;;37.72;24.02;;;4.10;99.90;;;;;;4995371;28;20381;-79
2024/02/27 01:25:08;;;;;;;34.42;22.33;;;4.10;99.90;;;;;;4995829;28;20511;-79
2024/02/27 01:27:34;;;;;;;32.33;22.33;;;4.10;99.90;;;;;;4966962;28;20471;-79
2024/02/27 01:30:01;;;;;;;32.50;21.85;;;4.10;99.90;;;;;;4978720;28;20041;-79
2024/02/27 01:32:28;;;;;;;34.70;23.15;;;4.10;99.90;;;;;;4976957;28;20515;-78
2024/02/27 01:34:55;;;;;;;35.03;23.80;;;4.10;99.90;;;;;;4977794;28;20045;-78
2024/02/27 01:37:21;;;;;;;37.83;25.27;;;4.10;99.90;;;;;;4978019;28;20038;-79
2024/02/27 01:39:47;;;;;;;36.67;24.90;;;4.00;99.90;;;;;;4979943;28;20086;-78
2024/02/27 01:42:13;;;;;;;36.38;23.33;;;4.00;99.90;;;;;;4996690;28;20041;-79
2024/02/27 01:44:48;;;;;;;40.75;24.63;;;4.00;99.90;;;;;;5011519;28;20594;-78
2024/02/27 01:47:17;;;;;;;37.40;24.73;;;3.90;99.90;;;;;;4964626;28;20035;-78
2024/02/27 01:49:43;;;;;;;34.20;22.52;;;3.80;99.90;;;;;;4961578;28;20484;-78
2024/02/27 01:52:12;;;;;;;38.53;24.00;;;3.80;99.90;;;;;;4977103;28;20637;-79
2024/02/27 01:54:41;;;;;;;34.05;22.48;;;3.80;99.90;;;;;;4993041;28;20033;-80
2024/02/27 01:57:08;;;;;;;37.25;23.98;;;3.70;99.90;;;;;;4976756;28;20036;-78
2024/02/27 01:59:35;;;;;;;34.25;22.38;;;3.70;99.90;;;;;;4994658;28;20554;-79
2024/02/27 02:02:02;;;;;;;35.25;23.02;;;3.60;99.90;;;;;;4986286;28;20041;-78
2024/02/27 02:04:30;;;;;;;31.80;21.33;;;3.60;99.90;;;;;;4981928;28;20044;-79
2024/02/27 02:06:56;;;;;;;37.78;25.00;;;3.50;99.90;;;;;;4995938;28;20044;-79
2024/02/27 02:09:22;;;;;;;37.30;24.13;;;3.50;99.90;;;;;;4975615;28;20046;-79
2024/02/27 02:11:49;;;;;;;34.08;22.67;;;3.40;99.90;;;;;;4980191;28;20037;-78
2024/02/27 02:14:15;;;;;;;37.53;23.27;;;3.40;99.90;;;;;;4964095;28;20047;-79
2024/02/27 02:16:42;;;;;;;38.58;22.95;;;3.40;99.90;;;;;;4993354;28;20556;-79
2024/02/27 02:19:08;;;;;;;39.13;24.38;;;3.30;99.90;;;;;;4984644;28;20170;-78
2024/02/27 02:21:35;;;;;;;32.03;21.33;;;3.30;99.90;;;;;;5000370;28;20029;-79
2024/02/27 02:24:02;;;;;;;35.92;22.55;;;3.30;99.90;;;;;;4995861;28;20048;-80
2024/02/27 02:26:30;;;;;;;35.07;22.30;;;3.30;99.90;;;;;;4981130;28;20041;-79
2024/02/27 02:28:57;;;;;;;35.75;23.27;;;3.20;99.90;;;;;;4996060;28;20701;-79
2024/02/27 02:31:24;;;;;;;34.00;21.27;;;3.20;99.90;;;;;;5008148;28;20029;-79
2024/02/27 02:33:50;;;;;;;33.40;21.88;;;3.20;99.90;;;;;;4994367;28;20448;-79
2024/02/27 02:36:16;;;;;;;34.78;21.52;;;3.10;99.90;;;;;;4982120;28;20045;-79
2024/02/27 02:38:43;;;;;;;31.85;20.45;;;3.10;99.90;;;;;;4982020;28;20033;-79
2024/02/27 02:41:09;;;;;;;31.90;20.95;;;3.10;99.90;;;;;;4996464;28;20034;-79
2024/02/27 02:43:35;;;;;;;32.08;20.27;;;3.00;99.90;;;;;;4981992;28;20511;-79
2024/02/27 02:46:03;;;;;;;34.85;21.70;;;3.00;99.90;;;;;;4981716;28;20057;-79
2024/02/27 02:48:29;;;;;;;33.85;21.98;;;3.00;99.90;;;;;;4966046;28;20047;-79
2024/02/27 02:50:55;;;;;;;35.17;21.02;;;2.90;99.90;;;;;;4984729;28;20036;-79
2024/02/27 02:53:22;;;;;;;38.88;22.05;;;2.90;99.90;;;;;;5003930;28;20048;-79
2024/02/27 02:55:48;;;;;;;34.25;21.45;;;2.90;99.90;;;;;;5002887;28;20028;-78
2024/02/27 02:58:14;;;;;;;38.97;22.50;;;2.90;99.90;;;;;;4996853;28;20036;-78
2024/02/27 03:00:41;;;;;;;42.33;23.57;;;2.90;99.90;;;;;;4971804;28;20432;-79
2024/02/27 03:03:07;;;;;;;34.63;21.42;;;2.90;99.90;;;;;;4987984;28;20036;-78
2024/02/27 03:05:33;;;;;;;35.87;21.90;;;2.90;99.90;;;;;;4986962;28;20044;-79
2024/02/27 03:08:00;;;;;;;38.00;22.38;;;2.80;99.90;;;;;;5005115;28;20045;-79
2024/02/27 03:10:26;;;;;;;37.67;22.42;;;2.80;99.90;;;;;;5009210;28;20037;-79
2024/02/27 03:12:53;;;;;;;34.60;21.13;;;2.80;99.90;;;;;;4967933;28;20045;-79
2024/02/27 03:15:19;;;;;;;29.37;19.50;;;2.80;99.90;;;;;;5001120;28;20574;-81
2024/02/27 03:17:46;;;;;;;31.85;19.42;;;2.70;99.90;;;;;;4985734;28;20041;-79
2024/02/27 03:20:12;;;;;;;36.60;20.70;;;2.70;99.90;;;;;;4970032;28;20472;-80
2024/02/27 03:22:38;;;;;;;49.90;27.73;;;2.70;99.90;;;;;;5001838;28;20041;-80
2024/02/27 03:25:05;;;;;;;37.15;22.35;;;2.70;99.90;;;;;;5003445;28;20044;-80
2024/02/27 03:27:33;;;;;;;34.20;21.83;;;2.70;99.90;;;;;;4988777;28;20041;-79
2024/02/27 03:30:00;;;;;;;34.90;20.47;;;2.60;99.90;;;;;;5006358;28;20045;-80
2024/02/27 03:32:26;;;;;;;35.50;21.13;;;2.60;99.90;;;;;;4985686;28;20385;-79
2024/02/27 03:34:53;;;;;;;37.05;22.42;;;2.60;99.90;;;;;;4984134;28;20129;-79
2024/02/27 03:37:19;;;;;;;38.10;22.45;;;2.60;99.90;;;;;;5000122;28;20317;-80
2024/02/27 03:39:45;;;;;;;37.05;21.65;;;2.60;99.90;;;;;;4965387;28;20041;-79
2024/02/27 03:42:12;;;;;;;42.75;23.30;;;2.60;99.90;;;;;;4969617;28;20050;-78
2024/02/27 03:44:42;;;;;;;36.97;22.37;;;2.60;99.90;;;;;;5003776;28;20048;-80
2024/02/27 03:47:08;;;;;;;40.20;22.73;;;2.50;99.90;;;;;;5002036;28;20043;-79
2024/02/27 03:49:35;;;;;;;34.42;21.35;;;2.50;99.90;;;;;;4998442;28;21107;-79
2024/02/27 03:52:01;;;;;;;45.30;24.67;;;2.50;99.90;;;;;;4998046;28;20033;-79
2024/02/27 03:54:27;;;;;;;36.93;23.03;;;2.50;99.90;;;;;;5016717;28;20488;-79
2024/02/27 03:56:54;;;;;;;49.88;28.48;;;2.50;99.90;;;;;;4985721;28;20030;-78
2024/02/27 03:59:20;;;;;;;41.27;23.33;;;2.50;99.90;;;;;;4986768;28;20059;-79
2024/02/27 04:01:51;;;;;;;45.97;25.17;;;2.50;99.90;;;;;;4989896;28;20029;-80
2024/02/27 04:04:17;;;;;;;48.37;25.50;;;2.50;99.90;;;;;;4990537;28;20374;-80
2024/02/27 04:06:43;;;;;;;44.53;24.37;;;2.50;99.90;;;;;;4970347;28;20041;-80
2024/02/27 04:09:10;;;;;;;45.90;25.30;;;2.50;99.90;;;;;;5003776;28;20042;-79
2024/02/27 04:11:36;;;;;;;44.03;25.20;;;2.50;99.90;;;;;;4970431;28;20044;-79
2024/02/27 04:14:02;;;;;;;44.13;24.10;;;2.50;99.90;;;;;;5002712;28;20480;-80
2024/02/27 04:16:29;;;;;;;41.90;23.80;;;2.40;99.90;;;;;;4986577;28;20124;-79
2024/02/27 04:18:55;;;;;;;40.40;23.02;;;2.40;99.90;;;;;;5005703;28;20029;-79
2024/02/27 04:21:22;;;;;;;45.08;23.90;;;2.40;99.90;;;;;;5005872;28;20025;-79
2024/02/27 04:23:48;;;;;;;43.17;24.20;;;2.40;99.90;;;;;;4970461;28;20397;-79
2024/02/27 04:26:14;;;;;;;53.90;29.00;;;2.40;99.90;;;;;;4985213;28;20499;-79
2024/02/27 04:28:41;;;;;;;55.10;28.80;;;2.40;99.90;;;;;;4979688;28;21091;-79
2024/02/27 04:31:07;;;;;;;56.78;28.33;;;2.40;99.90;;;;;;4998556;28;20543;-80
2024/02/27 04:33:34;;;;;;;46.20;27.03;;;2.40;99.90;;;;;;4995328;28;20052;-78
2024/02/27 04:36:00;;;;;;;48.77;25.47;;;2.40;99.90;;;;;;4997546;28;20065;-79
2024/02/27 04:38:26;;;;;;;43.72;25.13;;;2.30;99.90;;;;;;4983820;28;20385;-79
2024/02/27 04:40:53;;;;;;;47.83;25.27;;;2.40;99.90;;;;;;5015710;28;20037;-79
2024/02/27 04:43:19;;;;;;;44.50;26.67;;;2.30;99.90;;;;;;4983242;28;20040;-78
2024/02/27 04:45:46;;;;;;;45.37;25.03;;;2.30;99.90;;;;;;5000203;28;20696;-80
2024/02/27 04:48:12;;;;;;;54.97;28.70;;;2.30;99.90;;;;;;4981046;28;20036;-78
2024/02/27 04:50:38;;;;;;;45.50;27.03;;;2.30;99.90;;;;;;4981175;28;20057;-79
2024/02/27 04:53:05;;;;;;;44.47;24.77;;;2.40;99.90;;;;;;4988842;28;20041;-79
2024/02/27 04:55:31;;;;;;;54.40;29.00;;;2.40;99.90;;;;;;5005400;28;20184;-80
2024/02/27 04:57:58;;;;;;;54.03;27.92;;;2.30;99.90;;;;;;5001440;28;20033;-78
2024/02/27 05:00:24;;;;;;;49.63;26.80;;;2.30;99.90;;;;;;5004551;28;20394;-79
2024/02/27 05:02:50;;;;;;;47.38;25.95;;;2.30;99.90;;;;;;4999377;28;20036;-79
2024/02/27 05:05:17;;;;;;;58.97;28.00;;;2.30;99.90;;;;;;4999395;28;20691;-79
2024/02/27 05:07:43;;;;;;;46.57;26.47;;;2.30;99.90;;;;;;5002579;28;20432;-79
2024/02/27 05:10:09;;;;;;;45.08;25.08;;;2.30;99.90;;;;;;4987884;28;20496;-79
2024/02/27 05:12:36;;;;;;;48.33;26.30;;;2.30;99.90;;;;;;4986346;28;20033;-79
2024/02/27 05:15:03;;;;;;;44.93;25.40;;;2.30;99.90;;;;;;4984537;28;20409;-78
2024/02/27 05:17:29;;;;;;;53.15;26.73;;;2.20;99.90;;;;;;4982929;28;20049;-78
2024/02/27 05:19:55;;;;;;;55.33;28.43;;;2.20;99.90;;;;;;4995698;28;20029;-79
2024/02/27 05:22:22;;;;;;;46.47;26.57;;;2.20;99.90;;;;;;4999712;28;20037;-79
2024/02/27 05:24:48;;;;;;;49.93;27.00;;;2.20;99.90;;;;;;4985468;28;20042;-79
2024/02/27 05:27:16;;;;;;;51.23;26.70;;;2.20;99.90;;;;;;5000098;28;20133;-80
2024/02/27 05:29:43;;;;;;;55.30;27.43;;;2.20;99.90;;;;;;4980276;28;20723;-80
2024/02/27 05:32:09;;;;;;;63.87;30.77;;;2.20;99.90;;;;;;4997821;28;20430;-79
2024/02/27 05:34:36;;;;;;;49.37;26.17;;;2.20;99.90;;;;;;4993934;28;20365;-80
2024/02/27 05:37:02;;;;;;;43.73;24.00;;;2.20;99.90;;;;;;5000611;28;20033;-79
2024/02/27 05:39:29;;;;;;;58.33;29.17;;;2.20;99.90;;;;;;4965757;28;20034;-79
2024/02/27 05:41:55;;;;;;;52.53;27.93;;;2.20;99.90;;;;;;5000095;28;20041;-80
2024/02/27 05:44:22;;;;;;;43.43;24.30;;;2.30;99.90;;;;;;4986910;28;20038;-80
2024/02/27 05:46:48;;;;;;;43.13;25.03;;;2.30;99.90;;;;;;5001319;28;20037;-79
2024/02/27 05:49:15;;;;;;;56.33;29.03;;;2.30;99.90;;;;;;5013834;28;20519;-78
2024/02/27 05:51:41;;;;;;;45.73;25.63;;;2.30;99.90;;;;;;4998466;28;20033;-79
2024/02/27 05:54:08;;;;;;;47.47;25.53;;;2.30;99.90;;;;;;4998227;28;20041;-79
2024/02/27 05:56:35;;;;;;;44.30;24.50;;;2.30;99.90;;;;;;4983275;28;20060;-79
2024/02/27 05:59:01;;;;;;;49.37;24.33;;;2.20;99.90;;;;;;4986052;28;20044;-79
2024/02/27 06:01:28;;;;;;;49.50;27.80;;;2.20;99.90;;;;;;5006468;28;20025;-80
2024/02/27 06:03:54;;;;;;;49.80;27.03;;;2.20;99.90;;;;;;5000287;28;20061;-81
2024/02/27 06:06:21;;;;;;;50.07;26.60;;;2.30;99.90;;;;;;4998404;28;20044;-81
2024/02/27 06:08:47;;;;;;;60.53;30.23;;;2.20;99.90;;;;;;4999185;28;20388;-82
2024/02/27 06:11:13;;;;;;;59.57;29.87;;;2.20;99.90;;;;;;4980266;28;20034;-82
2024/02/27 06:13:42;;;;;;;50.70;26.23;;;2.30;99.90;;;;;;4966363;28;20562;-81
2024/02/27 06:16:10;;;;;;;47.90;25.92;;;2.20;99.90;;;;;;4985023;28;20489;-81
2024/02/27 06:18:37;;;;;;;53.77;27.87;;;2.30;99.90;;;;;;4988125;28;20524;-80
2024/02/27 06:23:51;;;;;;;48.80;27.30;;;2.30;99.90;;;;;;4996175;28;20087;-80
2024/02/27 06:26:18;;;;;;;48.27;27.03;;;2.30;99.90;;;;;;4993582;28;20038;-82
2024/02/27 06:28:44;;;;;;;53.27;26.73;;;2.30;99.90;;;;;;4962717;28;20037;-80
2024/02/27 06:31:12;;;;;;;53.03;27.27;;;2.30;99.90;;;;;;4979321;28;20037;-80
2024/02/27 06:33:38;;;;;;;53.07;26.67;;;2.30;99.90;;;;;;4980930;28;20038;-82
2024/02/27 06:36:05;;;;;;;46.42;23.90;;;2.30;99.90;;;;;;4981928;28;20041;-82
2024/02/27 06:38:32;;;;;;;52.53;28.37;;;2.30;99.90;;;;;;4981655;28;20044;-81
2024/02/27 06:40:58;;;;;;;51.83;26.88;;;2.30;99.90;;;;;;4996939;28;20049;-80
2024/02/27 06:43:25;;;;;;;46.87;26.67;;;2.30;99.90;;;;;;4996199;28;20041;-81
2024/02/27 06:45:51;;;;;;;60.67;29.97;;;2.30;99.90;;;;;;4999145;28;20180;-81
2024/02/27 06:48:17;;;;;;;65.32;31.77;;;2.30;99.90;;;;;;4980159;28;20036;-81
2024/02/27 06:50:44;;;;;;;60.08;27.80;;;2.40;99.90;;;;;;4970455;28;20037;-82
2024/02/27 06:53:12;;;;;;;58.85;29.08;;;2.40;99.90;;;;;;4985599;28;20056;-84
2024/02/27 06:55:38;;;;;;;55.87;27.13;;;2.40;99.90;;;;;;4992973;28;20033;-82
2024/02/27 06:58:05;;;;;;;47.53;26.00;;;2.50;99.90;;;;;;4992665;28;20038;-81
2024/02/27 07:00:31;;;;;;;58.13;29.00;;;2.60;99.90;;;;;;4966931;28;20476;-81
2024/02/27 07:02:58;;;;;;;55.83;28.60;;;2.60;99.90;;;;;;5010130;28;20037;-82
2024/02/27 07:05:26;;;;;;;58.95;27.55;;;2.70;99.90;;;;;;4963465;28;20423;-82
2024/02/27 07:07:52;;;;;;;57.27;26.67;;;2.70;99.90;;;;;;4982828;28;21078;-82
2024/02/27 07:10:18;;;;;;;55.95;27.48;;;2.70;99.90;;;;;;4982066;28;20936;-82
2024/02/27 07:12:45;;;;;;;49.10;25.47;;;2.70;99.90;;;;;;4995313;28;20040;-82
2024/02/27 07:15:11;;;;;;;45.42;24.45;;;2.70;99.90;;;;;;4995017;28;20044;-81
2024/02/27 07:17:38;;;;;;;56.33;27.80;;;2.70;99.90;;;;;;4963541;28;20075;-81
2024/02/27 07:20:07;;;;;;;49.10;26.57;;;2.70;99.90;;;;;;4979939;28;21264;-82
2024/02/27 07:22:34;;;;;;;52.10;28.80;;;2.70;99.90;;;;;;4998428;28;20369;-81
2024/02/27 07:25:00;;;;;;;57.65;28.17;;;2.80;99.90;;;;;;5001513;28;20415;-81
2024/02/27 07:27:26;;;;;;;54.40;27.00;;;2.80;99.90;;;;;;5000941;28;20044;-82
2024/02/27 07:29:52;;;;;;;56.45;29.65;;;2.80;99.90;;;;;;4982227;28;20037;-81
2024/02/27 07:32:19;;;;;;;49.45;27.15;;;2.90;99.90;;;;;;4998861;28;20042;-80
2024/02/27 07:34:46;;;;;;;49.70;27.77;;;2.90;99.90;;;;;;4998739;28;20357;-83
2024/02/27 07:37:15;;;;;;;46.00;25.15;;;2.90;99.90;;;;;;4965988;28;20029;-81
2024/02/27 07:39:42;;;;;;;38.47;23.67;;;3.00;99.90;;;;;;5010790;28;20582;-81
2024/02/27 07:42:09;;;;;;;38.75;24.00;;;3.00;99.90;;;;;;4964710;28;20041;-83
2024/02/27 07:44:35;;;;;;;39.70;22.73;;;3.00;99.90;;;;;;4984287;28;20041;-81
2024/02/27 07:47:01;;;;;;;41.72;24.42;;;3.00;99.90;;;;;;5002888;28;20041;-82
2024/02/27 07:49:28;;;;;;;37.95;21.98;;;3.00;99.90;;;;;;4966876;28;20038;-82
2024/02/27 07:51:54;;;;;;;40.40;22.98;;;2.90;99.90;;;;;;4999153;28;20037;-83
2024/02/27 07:54:21;;;;;;;41.42;23.90;;;2.90;99.90;;;;;;4999510;28;20041;-81
2024/02/27 07:56:48;;;;;;;39.10;23.97;;;3.00;99.90;;;;;;5000429;28;20041;-81
2024/02/27 07:59:15;;;;;;;37.92;23.17;;;3.00;99.90;;;;;;5015733;28;20037;-81
2024/02/27 08:01:41;;;;;;;32.40;20.23;;;3.10;99.90;;;;;;5022523;28;20048;-79
2024/02/27 08:04:07;;;;;;;41.40;24.37;;;3.20;99.90;;;;;;5002799;28;20325;-79
2024/02/27 08:06:34;;;;;;;40.00;23.13;;;3.20;99.90;;;;;;4984896;28;20045;-78
2024/02/27 08:09:00;;;;;;;39.17;23.00;;;3.30;99.90;;;;;;5001312;28;20029;-79
2024/02/27 08:11:26;;;;;;;33.13;20.27;;;3.40;99.90;;;;;;4984215;28;20029;-80
2024/02/27 08:13:53;;;;;;;38.58;22.33;;;3.50;99.90;;;;;;4984185;28;20436;-79
2024/02/27 08:16:19;;;;;;;31.77;20.10;;;3.50;99.90;;;;;;4999905;28;20919;-79
2024/02/27 08:18:46;;;;;;;34.20;22.27;;;3.50;99.90;;;;;;5003104;28;20413;-80
2024/02/27 08:21:12;;;;;;;38.20;23.23;;;3.50;99.90;;;;;;4989060;28;20025;-80
2024/02/27 08:23:38;;;;;;;39.17;22.63;;;3.50;99.90;;;;;;4983014;28;21164;-80
2024/02/27 08:26:06;;;;;;;33.28;22.02;;;3.50;99.90;;;;;;4996726;28;20045;-79
2024/02/27 08:28:33;;;;;;;37.45;24.13;;;3.50;99.90;;;;;;4994782;28;20040;-78
2024/02/27 08:31:03;;;;;;;35.27;21.70;;;3.50;99.90;;;;;;4998510;28;20033;-78
2024/02/27 08:33:32;;;;;;;30.30;20.23;;;3.50;99.90;;;;;;5029466;28;20532;-79
2024/02/27 08:35:58;;;;;;;34.47;22.08;;;3.50;99.90;;;;;;4984446;28;20964;-79
2024/02/27 08:38:25;;;;;;;34.65;22.48;;;3.50;99.90;;;;;;5019231;28;20092;-79
2024/02/27 08:40:51;;;;;;;35.50;22.70;;;3.50;99.90;;;;;;5002554;28;20033;-80
2024/02/27 08:43:17;;;;;;;31.75;21.08;;;3.50;99.90;;;;;;4999573;28;20469;-80
2024/02/27 08:45:44;;;;;;;40.00;22.27;;;3.50;99.90;;;;;;4999290;28;20041;-80
2024/02/27 08:48:10;;;;;;;35.90;22.60;;;3.50;99.90;;;;;;4981763;28;20053;-79
2024/02/27 08:50:36;;;;;;;38.13;23.05;;;3.50;99.90;;;;;;4988973;28;20040;-79
2024/02/27 08:53:03;;;;;;;38.15;23.65;;;3.50;99.90;;;;;;4987158;28;20045;-80
2024/02/27 08:55:31;;;;;;;30.45;20.77;;;3.60;99.90;;;;;;5002084;28;20036;-80
2024/02/27 08:57:57;;;;;;;37.20;24.13;;;3.70;99.90;;;;;;4997736;28;20056;-78
2024/02/27 09:00:26;;;;;;;35.17;21.25;;;3.80;99.90;;;;;;4983745;28;20044;-79
2024/02/27 09:02:52;;;;;;;32.67;21.42;;;3.90;99.90;;;;;;4965662;28;20041;-79
2024/02/27 09:05:19;;;;;;;33.75;22.67;;;4.00;99.90;;;;;;4998854;28;20393;-80
2024/02/27 09:07:45;;;;;;;31.60;21.67;;;4.20;99.90;;;;;;4999432;28;20038;-79
2024/02/27 09:10:12;;;;;;;36.72;22.52;;;4.30;99.90;;;;;;4973325;28;20038;-80
2024/02/27 09:12:39;;;;;;;35.13;22.65;;;4.40;99.90;;;;;;4988421;28;20037;-78
2024/02/27 09:15:06;;;;;;;29.02;20.77;;;4.50;99.90;;;;;;5003376;28;20038;-78
2024/02/27 09:17:33;;;;;;;37.50;23.17;;;4.60;99.90;;;;;;5000463;28;20066;-81
2024/02/27 09:19:59;;;;;;;33.03;22.33;;;4.70;99.90;;;;;;4981924;28;20029;-79
2024/02/27 09:22:25;;;;;;;32.20;22.25;;;4.80;99.90;;;;;;4979637;28;20480;-79
2024/02/27 09:24:51;;;;;;;31.83;21.20;;;4.80;99.90;;;;;;5002503;28;20055;-79
2024/02/27 09:27:21;;;;;;;35.42;22.98;;;4.80;99.90;;;;;;4971089;28;20037;-79
2024/02/27 09:29:47;;;;;;;35.70;22.65;;;4.90;99.90;;;;;;5000964;28;20037;-80
2024/02/27 09:32:16;;;;;;;32.60;22.33;;;4.90;99.90;;;;;;4968145;28;20044;-79
2024/02/27 09:34:43;;;;;;;31.33;22.25;;;4.90;99.90;;;;;;5000177;28;20048;-78
2024/02/27 09:37:11;;;;;;;30.17;20.15;;;4.90;99.90;;;;;;5000300;28;21110;-79
2024/02/27 09:39:38;;;;;;;29.73;20.83;;;4.90;99.90;;;;;;4977407;28;20045;-79
2024/02/27 09:42:12;;;;;;;29.23;21.35;;;5.10;99.90;;;;;;5002222;28;20044;-78
2024/02/27 09:44:42;;;;;;;26.83;19.20;;;5.10;99.90;;;;;;4985669;28;20492;-78
2024/02/27 09:47:10;;;;;;;25.70;18.23;;;5.20;99.90;;;;;;5002409;28;20033;-78
2024/02/27 09:49:41;;;;;;;28.27;19.10;;;5.30;99.90;;;;;;4997883;28;20045;-78
2024/02/27 09:52:13;;;;;;;26.30;19.83;;;5.30;99.90;;;;;;4982161;28;20056;-81
2024/02/27 09:54:41;;;;;;;29.00;20.83;;;5.30;99.90;;;;;;5014347;28;20077;-85
2024/02/27 09:57:07;;;;;;;26.77;19.33;;;5.30;99.90;;;;;;5017447;28;20064;-79
2024/02/27 09:59:37;;;;;;;26.83;19.33;;;5.30;99.90;;;;;;5005296;28;20186;-84
2024/02/27 10:02:12;;;;;;;23.98;18.17;;;5.40;99.90;;;;;;5004193;28;20049;-86
2024/02/27 10:04:39;;;;;;;25.70;19.45;;;5.50;99.90;;;;;;4997305;28;20040;-80
2024/02/27 10:07:08;;;;;;;24.63;18.50;;;5.60;99.90;;;;;;4997383;28;20044;-79
2024/02/27 10:09:37;;;;;;;26.33;18.75;;;5.70;99.90;;;;;;4980090;28;20408;-82
2024/02/27 10:12:04;;;;;;;22.38;17.67;;;5.80;99.90;;;;;;4997025;28;20041;-83
2024/02/27 10:14:33;;;;;;;24.45;18.27;;;5.90;99.90;;;;;;4985749;28;20060;-84
2024/02/27 10:16:59;;;;;;;24.77;17.73;;;6.00;99.90;;;;;;5017738;28;20033;-80
2024/02/27 10:19:27;;;;;;;23.48;18.48;;;6.10;99.90;;;;;;5014193;28;20037;-79
2024/02/27 10:21:55;;;;;;;24.45;17.67;;;6.10;99.90;;;;;;4977892;28;20044;-82
2024/02/27 10:24:29;;;;;;;23.02;18.25;;;6.30;99.90;;;;;;4981594;28;20068;-82
2024/02/27 10:27:02;;;;;;;23.92;18.52;;;6.40;99.90;;;;;;4982191;28;20619;-78
2024/02/27 10:29:30;;;;;;;23.45;18.30;;;6.60;99.90;;;;;;4982202;28;20034;-80
2024/02/27 10:31:57;;;;;;;19.17;15.52;;;6.90;99.90;;;;;;5001250;28;20044;-82
2024/02/27 10:34:28;;;;;;;19.45;15.82;;;7.20;99.90;;;;;;4980072;28;20495;-78
2024/02/27 10:36:59;;;;;;;20.40;16.88;;;7.30;99.90;;;;;;4980426;28;20125;-83
2024/02/27 10:39:25;;;;;;;21.63;17.40;;;7.30;99.90;;;;;;5027819;28;20476;-80
2024/02/27 10:41:52;;;;;;;21.00;16.80;;;7.30;99.90;;;;;;4978966;28;20033;-82
2024/02/27 10:44:21;;;;;;;21.65;16.70;;;7.40;99.90;;;;;;5007367;28;20029;-81
2024/02/27 10:46:47;;;;;;;21.92;17.27;;;7.60;99.90;;;;;;4998667;28;20029;-79
2024/02/27 10:49:16;;;;;;;18.67;15.15;;;7.60;99.90;;;;;;5012270;28;20858;-82
2024/02/27 10:51:43;;;;;;;16.60;14.13;;;7.50;99.90;;;;;;4996923;28;21444;-81
2024/02/27 10:54:09;;;;;;;19.05;14.40;;;7.40;99.90;;;;;;4995550;28;20049;-79
2024/02/27 10:56:36;;;;;;;20.13;16.08;;;7.40;99.90;;;;;;4996285;28;20044;-77
2024/02/27 10:59:04;;;;;;;19.10;15.63;;;7.50;99.90;;;;;;4994004;28;20041;-81
2024/02/27 11:01:32;;;;;;;20.45;16.77;;;7.60;99.90;;;;;;4996848;28;20037;-81
2024/02/27 11:04:04;;;;;;;18.15;14.88;;;7.60;99.90;;;;;;5015421;28;20049;-81
2024/02/27 11:06:32;;;;;;;18.92;15.45;;;7.60;99.90;;;;;;4981209;28;20041;-82
2024/02/27 11:09:12;;;;;;;20.27;16.42;;;7.60;99.90;;;;;;4996183;28;20099;-82
2024/02/27 11:11:41;;;;;;;21.98;18.27;;;7.60;99.90;;;;;;4975637;28;20041;-80
2024/02/27 11:14:12;;;;;;;18.77;16.23;;;7.60;99.90;;;;;;4995738;28;20041;-81
2024/02/27 11:16:43;;;;;;;17.95;15.20;;;7.50;99.90;;;;;;4995744;28;20048;-78
2024/02/27 11:19:37;;;;;;;16.98;14.63;;;7.40;99.90;;;;;;4993394;28;20044;-80
2024/02/27 11:22:04;;;;;;;17.77;15.55;;;7.60;99.90;;;;;;4983292;28;20475;-81
2024/02/27 11:24:31;;;;;;;18.33;15.63;;;7.60;99.90;;;;;;5003651;28;20063;-80
2024/02/27 11:26:57;;;;;;;15.77;13.57;;;7.60;99.90;;;;;;5000728;28;20400;-80
2024/02/27 11:29:24;;;;;;;15.18;12.57;;;7.60;99.90;;;;;;4995553;28;20877;-80
2024/02/27 11:31:52;;;;;;;20.75;16.45;;;7.60;99.90;;;;;;4981838;28;20064;-80
2024/02/27 11:34:23;;;;;;;17.23;14.82;;;7.70;99.90;;;;;;4981269;28;20143;-82
2024/02/27 11:37:21;;;;;;;19.53;16.30;;;7.70;99.90;;;;;;4998309;28;20022;-77
2024/02/27 11:39:49;;;;;;;19.35;16.60;;;7.70;99.90;;;;;;5004893;28;20040;-82
2024/02/27 11:42:35;;;;;;;16.17;14.30;;;7.70;99.90;;;;;;5000792;28;20065;-81
2024/02/27 11:45:06;;;;;;;18.27;15.80;;;7.80;99.90;;;;;;4982411;28;20074;-81
2024/02/27 11:47:47;;;;;;;16.27;14.52;;;7.80;99.90;;;;;;5007382;28;20049;-77
2024/02/27 11:50:37;;;;;;;19.70;14.88;;;7.70;99.90;;;;;;4996159;28;20610;-77
2024/02/27 11:53:20;;;;;;;19.10;14.18;;;7.50;99.90;;;;;;4997565;28;20048;-78
2024/02/27 11:55:47;;;;;;;;;;;7.50;99.90;;;;;;5003662;28;20413;-76
2024/02/27 11:58:14;;;;;;;18.35;14.85;;;7.30;99.90;;;;;;4988190;28;19909;-78
2024/02/27 12:00:45;;;;;;;17.98;14.75;;;7.20;99.90;;;;;;4998448;28;20404;-77
2024/02/27 12:03:11;;;;;;;15.85;13.43;;;7.10;99.90;;;;;;4997070;28;20657;-77
2024/02/27 12:05:49;;;;;;;17.40;13.43;;;7.20;99.90;;;;;;4997376;28;20040;-77
2024/02/27 12:08:16;;;;;;;18.13;16.02;;;7.40;99.90;;;;;;4996432;28;20088;-76
2024/02/27 12:10:43;;;;;;;20.88;18.08;;;7.60;99.90;;;;;;4996745;28;20396;-76
2024/02/27 12:13:10;;;;;;;18.05;15.77;;;7.90;99.90;;;;;;4998232;28;20038;-76
2024/02/27 12:15:37;;;;;;;21.80;17.73;;;8.10;99.90;;;;;;4983254;28;20843;-78
2024/02/27 12:18:04;;;;;;;19.67;15.00;;;8.40;99.90;;;;;;4982947;28;21080;-76
2024/02/27 12:20:30;;;;;;;15.30;13.57;;;8.50;99.90;;;;;;4996360;28;20027;-78
2024/02/27 12:22:57;;;;;;;16.23;14.02;;;8.80;99.90;;;;;;4980091;28;20041;-76
2024/02/27 12:25:23;;;;;;;13.75;12.35;;;9.50;99.90;;;;;;5009842;28;20040;-76
2024/02/27 12:27:56;;;;;;;13.93;12.43;;;10.50;99.90;;;;;;4976529;28;20045;-77
2024/02/27 12:30:23;;;;;;;14.07;12.63;;;11.60;99.90;;;;;;5011439;28;20037;-76
2024/02/27 12:32:50;;;;;;;12.63;11.32;;;12.40;99.90;;;;;;5007724;28;21372;-76
2024/02/27 12:35:17;;;;;;;10.85;9.75;;;12.90;99.90;;;;;;4983451;28;20025;-77
2024/02/27 12:37:48;;;;;;;17.00;14.48;;;13.60;99.90;;;;;;4982889;28;20044;-79
2024/02/27 12:40:18;;;;;;;13.30;11.98;;;14.30;99.90;;;;;;4965467;28;20915;-77
2024/02/27 12:42:49;;;;;;;10.77;9.68;;;14.90;99.90;;;;;;4978725;28;20042;-77